createdAt,value
2022-11-14T00:02:33.473Z,73.45
2022-11-14T00:05:19.422Z,73.40
2022-11-14T00:08:04.989Z,73.36
2022-11-14T00:10:51.969Z,73.88
2022-11-14T00:13:37.423Z,73.33
2022-11-14T00:16:22.574Z,73.78
2022-11-14T00:19:07.868Z,73.22
2022-11-14T00:21:53.532Z,73.66
2022-11-14T00:24:38.930Z,74.03
2022-11-14T00:27:24.395Z,73.77
2022-11-14T00:30:10.253Z,73.88
2022-11-14T00:32:55.428Z,73.52
2022-11-14T00:35:40.694Z,73.54
2022-11-14T00:38:26.162Z,73.28
2022-11-14T00:41:11.461Z,73.53
2022-11-14T00:43:56.759Z,73.41
2022-11-14T00:46:42.175Z,73.18
2022-11-14T00:49:27.626Z,73.26
2022-11-14T00:52:12.896Z,73.22
2022-11-14T00:54:58.154Z,73.65
2022-11-14T00:57:43.408Z,73.36
2022-11-14T01:00:28.951Z,73.09
2022-11-14T01:03:14.525Z,72.95
2022-11-14T01:06:05.791Z,73.24
2022-11-14T01:08:52.082Z,72.78
2022-11-14T01:11:38.393Z,72.95
2022-11-14T01:14:23.830Z,72.93
2022-11-14T01:17:09.260Z,73.32
2022-11-14T01:19:55.026Z,73.19
2022-11-14T01:22:40.545Z,73.05
2022-11-14T01:25:25.721Z,73.08
2022-11-14T01:28:13.920Z,73.44
2022-11-14T01:31:15.185Z,73.69
2022-11-14T01:34:00.465Z,73.64
2022-11-14T01:36:45.836Z,73.06
2022-11-14T01:39:31.271Z,73.01
2022-11-14T01:42:17.704Z,72.99
2022-11-14T01:45:41.487Z,73.49
2022-11-14T01:48:38.022Z,73.52
2022-11-14T01:51:26.598Z,73.04
2022-11-14T01:54:24.176Z,73.11
2022-11-14T01:57:11.511Z,73.25
2022-11-14T02:00:01.088Z,73.74
2022-11-14T02:02:46.822Z,73.10
2022-11-14T02:05:32.951Z,73.04
2022-11-14T02:08:18.868Z,73.10
2022-11-14T02:11:04.320Z,72.92
2022-11-14T02:13:50.674Z,73.05
2022-11-14T02:16:36.057Z,72.85
2022-11-14T02:19:21.481Z,72.81
2022-11-14T02:22:06.824Z,72.28
2022-11-14T02:24:52.155Z,72.03
2022-11-14T02:27:39.748Z,72.13
2022-11-14T02:30:25.005Z,71.51
2022-11-14T02:33:11.496Z,71.47
2022-11-14T02:35:57.114Z,71.49
2022-11-14T02:38:42.517Z,72.07
2022-11-14T02:41:27.736Z,71.96
2022-11-14T02:44:13.414Z,72.37
2022-11-14T02:46:58.796Z,72.86
2022-11-14T02:49:44.136Z,73.25
2022-11-14T02:52:29.585Z,73.65
2022-11-14T02:55:15.331Z,73.47
2022-11-14T02:58:00.865Z,73.90
2022-11-14T03:01:13.564Z,74.19
2022-11-14T03:03:52.366Z,74.62
2022-11-14T03:06:37.582Z,74.57
2022-11-14T03:09:22.984Z,74.89
2022-11-14T03:12:08.257Z,74.68
2022-11-14T03:14:53.712Z,74.98
2022-11-14T03:17:39.079Z,74.97
2022-11-14T03:20:24.118Z,74.94
2022-11-14T03:23:09.439Z,74.92
2022-11-14T03:25:54.757Z,74.91
2022-11-14T03:28:41.086Z,74.87
2022-11-14T03:31:26.021Z,74.87
2022-11-14T03:34:12.828Z,74.73
2022-11-14T03:36:57.931Z,74.89
2022-11-14T03:39:43.257Z,74.83
2022-11-14T03:42:28.679Z,74.99
2022-11-14T03:45:13.942Z,75.06
2022-11-14T03:47:59.289Z,75.06
2022-11-14T03:50:44.419Z,75.18
2022-11-14T03:53:29.762Z,75.27
2022-11-14T03:56:15.131Z,75.65
2022-11-14T03:59:00.451Z,75.83
2022-11-14T04:01:45.802Z,75.70
2022-11-14T04:04:31.005Z,75.97
2022-11-14T04:07:16.348Z,76.26
2022-11-14T04:10:01.755Z,76.37
2022-11-14T04:12:51.559Z,76.39
2022-11-14T04:15:36.798Z,76.94
2022-11-14T04:18:22.350Z,76.91
2022-11-14T04:21:07.256Z,77.40
2022-11-14T04:23:52.691Z,77.33
2022-11-14T04:26:37.931Z,77.53
2022-11-14T04:29:23.476Z,77.50
2022-11-14T04:32:08.593Z,77.34
2022-11-14T04:34:54.003Z,77.59
2022-11-14T04:37:39.627Z,77.53
2022-11-14T04:40:24.928Z,77.24
2022-11-14T04:43:10.234Z,77.25
2022-11-14T04:45:55.454Z,77.42
2022-11-14T04:48:40.747Z,77.43
2022-11-14T04:51:26.114Z,77.45
2022-11-14T04:54:11.584Z,77.37
2022-11-14T04:56:56.847Z,77.09
2022-11-14T05:04:01.430Z,77.80
2022-11-14T05:07:34.532Z,77.59
2022-11-14T05:10:34.472Z,78.04
2022-11-14T05:16:47.233Z,78.01
2022-11-14T05:19:32.724Z,78.21
2022-11-14T05:22:30.416Z,78.70
2022-11-14T05:25:15.783Z,78.27
2022-11-14T05:28:01.951Z,78.42
2022-11-14T05:35:17.438Z,78.44
2022-11-14T05:38:05.691Z,78.53
2022-11-14T05:40:51.031Z,78.46
2022-11-14T05:50:47.470Z,78.86
2022-11-14T05:53:34.075Z,78.71
2022-11-14T05:56:19.191Z,79.15
2022-11-14T05:59:04.630Z,79.19
2022-11-14T06:01:49.974Z,78.99
2022-11-14T06:04:35.166Z,79.22
2022-11-14T06:07:20.755Z,79.48
2022-11-14T06:10:06.937Z,79.58
2022-11-14T06:12:52.603Z,79.40
2022-11-14T06:15:37.956Z,79.25
2022-11-14T06:18:23.335Z,79.31
2022-11-14T06:21:17.527Z,79.81
2022-11-14T06:24:03.038Z,79.45
2022-11-14T06:26:48.362Z,79.48
2022-11-14T06:29:35.661Z,79.80
2022-11-14T06:32:21.120Z,79.88
2022-11-14T06:35:08.503Z,79.68
2022-11-14T06:37:54.364Z,80.01
2022-11-14T06:40:40.067Z,79.98
2022-11-14T06:43:25.545Z,79.81
2022-11-14T06:46:12.895Z,79.67
2022-11-14T06:48:58.524Z,80.11
2022-11-14T06:51:43.962Z,80.16
2022-11-14T06:54:29.291Z,79.99
2022-11-14T06:57:14.765Z,80.04
2022-11-14T07:00:00.325Z,80.18
2022-11-14T07:02:46.861Z,80.17
2022-11-14T07:05:32.328Z,79.98
2022-11-14T07:08:21.002Z,80.16
2022-11-14T07:11:12.746Z,80.07
2022-11-14T07:14:04.029Z,80.27
2022-11-14T07:16:49.370Z,80.51
2022-11-14T07:19:35.215Z,80.01
2022-11-14T07:22:20.826Z,80.09
2022-11-14T07:25:06.968Z,79.96
2022-11-14T07:27:52.628Z,79.78
2022-11-14T07:30:37.994Z,79.82
2022-11-14T07:33:23.207Z,79.79
2022-11-14T07:36:09.602Z,79.60
2022-11-14T07:38:55.099Z,79.76
2022-11-14T07:41:41.208Z,79.58
2022-11-14T07:44:26.836Z,79.55
2022-11-14T07:47:12.197Z,79.52
2022-11-14T07:49:57.491Z,79.25
2022-11-14T07:52:42.986Z,79.02
2022-11-14T07:55:28.323Z,78.98
2022-11-14T07:58:13.857Z,78.61
2022-11-14T08:01:03.150Z,78.39
2022-11-14T08:03:48.597Z,78.18
2022-11-14T08:06:34.173Z,78.09
2022-11-14T08:09:19.571Z,78.15
2022-11-14T08:12:05.435Z,77.99
2022-11-14T08:14:50.901Z,77.96
2022-11-14T08:17:36.344Z,78.02
2022-11-14T08:20:21.772Z,78.04
2022-11-14T08:23:07.743Z,77.74
2022-11-14T08:25:53.307Z,77.30
2022-11-14T08:28:38.879Z,78.08
2022-11-14T08:31:25.087Z,77.27
2022-11-14T08:34:10.587Z,77.46
2022-11-14T08:36:57.452Z,77.34
2022-11-14T08:39:42.874Z,76.68
2022-11-14T08:42:28.962Z,76.13
2022-11-14T08:45:14.582Z,76.44
2022-11-14T08:48:00.248Z,76.04
2022-11-14T08:50:45.450Z,75.90
2022-11-14T08:53:31.533Z,75.65
2022-11-14T08:56:16.668Z,76.01
2022-11-14T08:59:05.703Z,75.57
2022-11-14T09:01:51.458Z,75.15
2022-11-14T09:04:37.213Z,75.39
2022-11-14T09:07:22.877Z,75.50
2022-11-14T09:10:08.647Z,75.55
2022-11-14T09:12:59.005Z,75.02
2022-11-14T09:15:44.954Z,75.12
2022-11-14T09:18:31.373Z,74.78
2022-11-14T09:21:17.019Z,74.67
2022-11-14T09:24:02.334Z,74.07
2022-11-14T09:26:54.992Z,74.16
2022-11-14T09:29:41.711Z,74.55
2022-11-14T09:32:27.182Z,74.17
2022-11-14T09:35:12.952Z,73.68
2022-11-14T09:38:09.356Z,74.11
2022-11-14T09:41:06.578Z,73.86
2022-11-14T09:44:22.801Z,74.12
2022-11-14T09:47:20.538Z,73.88
2022-11-14T09:50:28.963Z,73.71
2022-11-14T09:53:29.243Z,73.42
2022-11-14T09:56:21.700Z,73.22
2022-11-14T09:59:14.828Z,72.71
2022-11-14T10:02:21.773Z,73.23
2022-11-14T10:05:25.782Z,72.51
2022-11-14T10:08:29.308Z,72.75
2022-11-14T10:11:28.540Z,72.24
2022-11-14T10:14:23.099Z,71.42
2022-11-14T10:17:40.888Z,70.99
2022-11-14T10:20:29.149Z,70.02
2022-11-14T10:23:35.153Z,69.76
2022-11-14T10:26:27.220Z,69.30
2022-11-14T10:29:42.556Z,67.47
2022-11-14T10:32:31.132Z,67.42
2022-11-14T10:35:21.939Z,66.21
2022-11-14T10:38:07.545Z,65.63
2022-11-14T10:41:00.926Z,63.52
2022-11-14T10:43:51.944Z,64.53
2022-11-14T10:46:45.743Z,65.01
2022-11-14T10:49:36.255Z,63.44
2022-11-14T10:52:26.597Z,63.41
2022-11-14T10:55:17.677Z,63.22
2022-11-14T10:58:13.732Z,62.78
2022-11-14T11:01:37.847Z,60.92
2022-11-14T11:04:34.542Z,62.46
2022-11-14T11:08:10.296Z,61.43
2022-11-14T11:11:29.905Z,61.79
2022-11-14T11:14:19.694Z,60.93
2022-11-14T11:17:26.829Z,60.17
2022-11-14T11:20:41.082Z,59.97
2022-11-14T11:23:27.815Z,59.63
2022-11-14T11:26:39.517Z,59.03
2022-11-14T11:29:25.055Z,58.42
2022-11-14T11:32:10.696Z,58.63
2022-11-14T11:34:59.522Z,59.21
2022-11-14T11:38:02.960Z,57.45
2022-11-14T11:40:54.890Z,57.81
2022-11-14T11:43:53.945Z,57.10
2022-11-14T11:46:45.079Z,56.76
2022-11-14T11:49:41.604Z,56.45
2022-11-14T11:52:30.198Z,56.44
2022-11-14T11:55:20.758Z,57.00
2022-11-14T11:58:20.956Z,55.34
2022-11-14T12:01:09.718Z,56.00
2022-11-14T12:03:55.595Z,55.08
2022-11-14T12:07:10.259Z,54.95
2022-11-14T12:10:12.860Z,53.96
2022-11-14T12:13:32.210Z,54.38
2022-11-14T12:16:48.006Z,52.59
2022-11-14T12:19:40.715Z,52.55
2022-11-14T12:22:47.828Z,53.56
2022-11-14T12:25:57.310Z,52.59
2022-11-14T12:29:19.857Z,52.63
2022-11-14T12:32:15.710Z,52.79
2022-11-14T12:35:05.528Z,52.42
2022-11-14T12:37:56.069Z,52.22
2022-11-14T12:40:51.470Z,52.22
2022-11-14T12:43:40.280Z,52.93
2022-11-14T12:46:26.852Z,52.14
2022-11-14T12:49:47.809Z,49.46
2022-11-14T12:52:46.344Z,50.22
2022-11-14T12:55:31.573Z,52.17
2022-11-14T12:58:35.759Z,51.32
2022-11-14T13:01:37.880Z,51.06
2022-11-14T13:04:42.521Z,50.41
2022-11-14T13:07:42.926Z,49.59
2022-11-14T13:10:39.993Z,50.08
2022-11-14T13:13:43.690Z,50.61
2022-11-14T13:16:54.016Z,49.57
2022-11-14T13:20:04.900Z,50.02
2022-11-14T13:22:50.486Z,49.72
2022-11-14T13:25:36.154Z,50.72
2022-11-14T13:28:45.318Z,50.72
2022-11-14T13:31:33.684Z,51.67
2022-11-14T13:34:34.215Z,51.52
2022-11-14T13:37:55.408Z,50.96
2022-11-14T13:41:04.769Z,50.66
2022-11-14T13:43:57.070Z,51.44
2022-11-14T13:46:54.859Z,51.68
2022-11-14T13:50:02.101Z,51.38
2022-11-14T13:52:50.653Z,51.62
2022-11-14T13:55:59.623Z,51.79
2022-11-14T13:59:09.854Z,52.25
2022-11-14T14:02:05.130Z,51.97
2022-11-14T14:05:40.001Z,52.10
2022-11-14T14:08:50.033Z,51.83
2022-11-14T14:11:53.378Z,51.59
2022-11-14T14:15:00.485Z,50.72
2022-11-14T14:18:10.407Z,51.88
2022-11-14T14:21:03.436Z,51.83
2022-11-14T14:23:53.609Z,51.92
2022-11-14T14:27:18.612Z,52.25
2022-11-14T14:30:08.632Z,52.62
2022-11-14T14:33:09.093Z,52.61
2022-11-14T14:35:54.862Z,53.06
2022-11-14T14:38:40.202Z,53.21
2022-11-14T14:41:31.159Z,53.05
2022-11-14T14:44:23.376Z,53.48
2022-11-14T14:47:37.331Z,53.34
2022-11-14T14:50:27.052Z,53.63
2022-11-14T14:53:31.343Z,53.51
2022-11-14T14:56:22.046Z,53.49
2022-11-14T14:59:19.434Z,53.48
2022-11-14T15:02:15.423Z,53.56
2022-11-14T15:05:01.965Z,53.80
2022-11-14T15:07:49.554Z,54.08
2022-11-14T15:10:35.320Z,54.43
2022-11-14T15:13:21.096Z,54.31
2022-11-14T15:16:07.858Z,54.59
2022-11-14T15:18:55.418Z,54.70
2022-11-14T15:21:41.010Z,54.67
2022-11-14T15:24:26.867Z,54.86
2022-11-14T15:27:20.365Z,55.24
2022-11-14T15:30:07.907Z,55.08
2022-11-14T15:32:56.241Z,55.25
2022-11-14T15:35:41.742Z,55.21
2022-11-14T15:41:33.813Z,55.48
2022-11-14T15:44:33.367Z,55.45
2022-11-14T15:47:36.848Z,55.94
2022-11-14T15:50:30.184Z,55.99
2022-11-14T15:53:25.639Z,56.22
2022-11-14T15:56:13.004Z,56.57
2022-11-14T15:58:58.415Z,56.90
2022-11-14T16:01:46.090Z,57.26
2022-11-14T16:04:35.220Z,57.68
2022-11-14T16:07:22.063Z,58.01
2022-11-14T16:10:19.645Z,58.90
2022-11-14T16:13:05.358Z,58.96
2022-11-14T16:15:50.924Z,59.36
2022-11-14T16:18:36.529Z,59.83
2022-11-14T16:21:22.107Z,59.60
2022-11-14T16:24:15.027Z,59.83
2022-11-14T16:27:00.579Z,60.05
2022-11-14T16:29:45.823Z,60.36
2022-11-14T16:32:31.198Z,61.03
2022-11-14T16:35:22.697Z,61.76
2022-11-14T16:38:12.305Z,62.00
2022-11-14T16:41:00.209Z,62.08
2022-11-14T16:43:46.104Z,62.65
2022-11-14T16:46:31.966Z,62.52
2022-11-14T16:49:19.651Z,63.02
2022-11-14T16:52:08.603Z,63.15
2022-11-14T16:54:54.116Z,63.64
2022-11-14T16:57:40.220Z,64.18
2022-11-14T17:00:25.911Z,64.25
2022-11-14T17:03:11.313Z,64.98
2022-11-14T17:05:56.814Z,65.12
2022-11-14T17:08:42.277Z,65.50
2022-11-14T17:11:28.067Z,65.70
2022-11-14T17:14:13.756Z,66.09
2022-11-14T17:17:02.684Z,66.54
2022-11-14T17:19:48.193Z,66.87
2022-11-14T17:22:33.523Z,66.87
2022-11-14T17:25:19.190Z,67.06
2022-11-14T17:28:04.986Z,67.12
2022-11-14T17:30:50.120Z,67.52
2022-11-14T17:33:36.110Z,67.42
2022-11-14T17:36:22.687Z,67.65
2022-11-14T17:39:08.079Z,68.00
2022-11-14T17:41:53.488Z,68.20
2022-11-14T17:44:38.741Z,68.04
2022-11-14T17:47:24.003Z,68.08
2022-11-14T17:50:09.970Z,68.30
2022-11-14T17:52:55.437Z,68.42
2022-11-14T17:55:40.810Z,68.61
2022-11-14T17:58:31.187Z,68.37
2022-11-14T18:01:22.257Z,68.19
2022-11-14T18:04:08.089Z,68.66
2022-11-14T18:06:53.536Z,67.78
2022-11-14T18:09:39.302Z,67.94
2022-11-14T18:12:24.365Z,67.95
2022-11-14T18:15:10.160Z,67.72
2022-11-14T18:17:56.020Z,67.54
2022-11-14T18:20:41.521Z,67.67
2022-11-14T18:23:27.040Z,67.64
2022-11-14T18:26:14.829Z,67.47
2022-11-14T18:29:04.226Z,67.46
2022-11-14T18:31:49.434Z,67.06
2022-11-14T18:34:37.115Z,66.91
2022-11-14T18:37:23.314Z,67.02
2022-11-14T18:40:16.227Z,66.58
2022-11-14T18:43:02.494Z,66.82
2022-11-14T18:45:48.222Z,67.30
2022-11-14T18:48:33.639Z,67.10
2022-11-14T18:51:22.114Z,67.47
2022-11-14T18:54:11.483Z,67.25
2022-11-14T18:56:57.633Z,67.14
2022-11-14T18:59:42.994Z,67.29
2022-11-14T19:02:28.359Z,67.26
2022-11-14T19:05:13.795Z,66.95
2022-11-14T19:07:59.279Z,67.08
2022-11-14T19:10:44.450Z,67.27
2022-11-14T19:13:30.234Z,67.53
2022-11-14T19:16:15.744Z,67.67
2022-11-14T19:19:01.902Z,68.05
2022-11-14T19:21:51.024Z,68.08
2022-11-14T19:24:36.805Z,67.92
2022-11-14T19:27:22.371Z,67.94
2022-11-14T19:30:08.509Z,68.17
2022-11-14T19:32:54.025Z,68.40
2022-11-14T19:35:39.503Z,68.70
2022-11-14T19:38:25.027Z,68.68
2022-11-14T19:41:25.143Z,68.85
2022-11-14T19:44:10.606Z,68.74
2022-11-14T19:46:55.924Z,68.88
2022-11-14T19:49:42.950Z,69.37
2022-11-14T19:52:28.397Z,69.11
2022-11-14T19:55:13.627Z,69.17
2022-11-14T19:58:00.223Z,69.47
2022-11-14T20:00:45.548Z,69.82
2022-11-14T20:03:31.589Z,69.81
2022-11-14T20:06:28.898Z,69.95
2022-11-14T20:09:16.946Z,69.78
2022-11-14T20:12:02.723Z,69.89
2022-11-14T20:14:48.138Z,70.18
2022-11-14T20:17:36.023Z,70.07
2022-11-14T20:20:24.370Z,70.05
2022-11-14T20:23:09.992Z,69.76
2022-11-14T20:25:55.792Z,70.12
2022-11-14T20:28:42.521Z,70.24
2022-11-14T20:31:30.100Z,70.20
2022-11-14T20:34:15.669Z,70.33
2022-11-14T20:37:16.430Z,70.47
2022-11-14T20:40:01.619Z,70.49
2022-11-14T20:42:49.043Z,70.46
2022-11-14T20:45:34.564Z,70.48
2022-11-14T20:48:19.671Z,70.70
2022-11-14T20:51:11.834Z,70.84
2022-11-14T20:53:56.882Z,70.98
2022-11-14T20:56:42.307Z,71.03
2022-11-14T20:59:27.746Z,71.51
2022-11-14T21:02:14.402Z,71.52
2022-11-14T21:05:01.018Z,71.48
2022-11-14T21:07:46.421Z,71.78
2022-11-14T21:10:46.067Z,72.37
2022-11-14T21:13:49.695Z,72.13
2022-11-14T21:16:37.356Z,72.19
2022-11-14T21:19:22.873Z,72.82
2022-11-14T21:22:08.484Z,72.54
2022-11-14T21:24:53.772Z,72.50
2022-11-14T21:27:39.157Z,72.06
2022-11-14T21:30:24.579Z,72.20
2022-11-14T21:33:09.906Z,72.39
2022-11-14T21:35:55.401Z,72.83
2022-11-14T21:38:41.439Z,72.50
2022-11-14T21:41:28.688Z,72.34
2022-11-14T21:44:16.789Z,72.63
2022-11-14T21:47:02.454Z,73.03
2022-11-14T21:49:47.719Z,73.43
2022-11-14T21:52:33.168Z,73.49
2022-11-14T21:55:18.531Z,73.54
2022-11-14T21:58:03.775Z,73.58
2022-11-14T22:00:49.267Z,73.70
2022-11-14T22:03:53.565Z,73.09
2022-11-14T22:06:42.653Z,72.92
2022-11-14T22:09:28.613Z,73.46
2022-11-14T22:12:14.000Z,72.93
2022-11-14T22:14:59.394Z,72.34
2022-11-14T22:17:44.791Z,72.63
2022-11-14T22:20:30.166Z,72.94
2022-11-14T22:23:15.524Z,72.93
2022-11-14T22:26:01.088Z,72.64
2022-11-14T22:28:47.119Z,72.74
2022-11-14T22:31:32.764Z,73.33
2022-11-14T22:34:18.108Z,73.44
2022-11-14T22:37:03.681Z,73.65
2022-11-14T22:39:48.999Z,74.30
2022-11-14T22:42:34.366Z,73.81
2022-11-14T22:45:20.211Z,74.14
2022-11-14T22:48:05.507Z,73.53
2022-11-14T22:51:07.502Z,73.28
2022-11-14T22:53:57.529Z,73.16
2022-11-14T22:56:42.720Z,73.04
2022-11-14T22:59:28.162Z,73.34
2022-11-14T23:02:13.436Z,73.38
2022-11-14T23:04:58.853Z,73.18
2022-11-14T23:07:44.156Z,73.08
2022-11-14T23:10:40.716Z,73.16
2022-11-14T23:13:29.097Z,73.20
2022-11-14T23:16:18.625Z,73.28
2022-11-14T23:19:04.887Z,72.97
2022-11-14T23:21:50.538Z,73.01
2022-11-14T23:24:36.543Z,73.02
2022-11-14T23:27:22.178Z,72.81
2022-11-14T23:30:09.236Z,72.74
2022-11-14T23:32:54.813Z,72.81
2022-11-14T23:35:41.585Z,72.84
2022-11-14T23:38:27.190Z,72.82
2022-11-14T23:41:31.406Z,72.69
2022-11-14T23:44:17.693Z,72.40
2022-11-14T23:47:03.600Z,72.34
2022-11-14T23:49:49.650Z,72.21
2022-11-14T23:52:35.310Z,72.31
2022-11-14T23:55:21.475Z,72.02
2022-11-14T23:58:07.318Z,71.89
